Terminal Aerodrome Forecast
Issued by NWS

Current Version | Previous Version | Graphics & Text | Print | Product List | Glossary On
Versions: 1 2 3 4 5 6 7 8 9 10 11 12 13 14 15 16 17 18 19 20 21
000
FTUS41 KILN 282331
TAFLUK
TAF
KLUK 282331Z 2900/2924 11003KT P6SM BKN250
     FM290900 00000KT 5SM BR SCT040 BKN200
     FM291400 20006KT P6SM SCT040 BKN200
     FM291600 22008KT P6SM BKN040=

USA.gov is the U.S. government's official web portal to all federal, state and local government web resources and services.